createdAt,value
2018-09-08T00:00:20.361Z,86.77
2018-09-08T00:02:49.124Z,86.79
2018-09-08T00:05:18.406Z,86.74
2018-09-08T00:07:47.391Z,86.04
2018-09-08T00:10:17.569Z,85.89
2018-09-08T00:12:46.976Z,86.08
2018-09-08T00:15:20.984Z,85.71
2018-09-08T00:17:54.839Z,86.26
2018-09-08T00:20:28.771Z,85.24
2018-09-08T00:23:03.515Z,85.65
2018-09-08T00:25:37.613Z,85.26
2018-09-08T00:28:11.173Z,84.66
2018-09-08T00:30:40.517Z,85.17
2018-09-08T00:33:09.927Z,84.82
2018-09-08T00:35:39.201Z,84.38
2018-09-08T00:38:08.341Z,84.22
2018-09-08T00:40:37.415Z,84.47
2018-09-08T00:43:06.339Z,83.87
2018-09-08T00:45:35.269Z,84.59
2018-09-08T00:48:04.139Z,83.55
2018-09-08T00:50:32.968Z,83.83
2018-09-08T00:53:01.726Z,83.45
2018-09-08T00:55:30.463Z,83.41
2018-09-08T00:58:00.431Z,83.24
2018-09-08T01:00:29.316Z,83.34
2018-09-08T01:02:58.201Z,83.43
2018-09-08T01:05:26.996Z,82.70
2018-09-08T01:07:55.879Z,82.79
2018-09-08T01:10:26.178Z,83.23
2018-09-08T01:12:54.910Z,83.32
2018-09-08T01:15:23.678Z,82.52
2018-09-08T01:17:52.603Z,83.03
2018-09-08T01:20:21.345Z,82.95
2018-09-08T01:22:51.131Z,83.14
2018-09-08T01:25:20.390Z,83.95
2018-09-08T01:27:49.989Z,84.16
2018-09-08T01:30:19.258Z,84.49
2018-09-08T01:32:48.083Z,84.58
2018-09-08T01:35:17.743Z,84.87
2018-09-08T01:37:47.568Z,85.30
2018-09-08T01:40:16.431Z,85.56
2018-09-08T01:42:45.251Z,84.90
2018-09-08T01:45:14.068Z,85.03
2018-09-08T01:47:42.951Z,85.89
2018-09-08T01:50:11.770Z,85.00
2018-09-08T01:52:40.584Z,85.85
2018-09-08T01:55:09.888Z,86.06
2018-09-08T01:57:40.490Z,85.40
2018-09-08T02:00:10.070Z,85.38
2018-09-08T02:02:39.296Z,85.76
2018-09-08T02:05:08.397Z,86.05
2018-09-08T02:07:37.599Z,85.58
2018-09-08T02:10:07.531Z,85.56
2018-09-08T02:12:36.957Z,85.26
2018-09-08T02:15:06.079Z,85.77
2018-09-08T02:17:35.548Z,85.78
2018-09-08T02:20:04.529Z,85.71
2018-09-08T02:22:34.372Z,85.57
2018-09-08T02:25:04.029Z,85.58
2018-09-08T02:27:33.652Z,86.12
2018-09-08T02:30:02.473Z,85.69
2018-09-08T02:32:31.336Z,85.97
2018-09-08T02:35:00.820Z,86.77
2018-09-08T02:37:29.602Z,86.43
2018-09-08T02:39:58.545Z,86.15
2018-09-08T02:42:27.428Z,86.78
2018-09-08T02:44:56.178Z,86.18
2018-09-08T02:47:25.186Z,85.99
2018-09-08T02:50:30.589Z,86.58
2018-09-08T02:52:58.211Z,86.34
2018-09-08T02:55:25.757Z,86.55
2018-09-08T02:57:53.759Z,86.46
2018-09-08T03:00:21.140Z,86.39
2018-09-08T03:02:48.543Z,86.16
2018-09-08T03:05:16.200Z,86.50
2018-09-08T03:07:44.043Z,86.33
2018-09-08T03:10:12.152Z,86.18
2018-09-08T03:12:39.573Z,86.15
2018-09-08T03:15:07.135Z,86.04
2018-09-08T03:17:34.549Z,85.60
2018-09-08T03:20:02.257Z,85.67
2018-09-08T03:22:29.831Z,86.09
2018-09-08T03:24:57.776Z,85.76
2018-09-08T03:27:25.868Z,86.35
2018-09-08T03:29:53.253Z,85.95
2018-09-08T03:32:20.661Z,85.41
2018-09-08T03:34:48.577Z,85.10
2018-09-08T03:37:15.980Z,85.53
2018-09-08T03:39:43.374Z,85.50
2018-09-08T03:42:10.817Z,85.56
2018-09-08T03:44:38.199Z,85.59
2018-09-08T03:47:05.739Z,85.54
2018-09-08T03:49:33.169Z,85.35
2018-09-08T03:52:00.535Z,86.00
2018-09-08T03:54:27.921Z,85.79
2018-09-08T03:56:55.355Z,86.29
2018-09-08T03:59:23.511Z,85.85
2018-09-08T04:01:50.901Z,86.75
2018-09-08T04:04:19.725Z,86.80
2018-09-08T04:06:48.610Z,86.65
2018-09-08T04:09:18.279Z,87.27
2018-09-08T04:11:47.384Z,87.57
2018-09-08T04:14:16.175Z,87.68
2018-09-08T04:16:45.033Z,87.67
2018-09-08T04:19:13.791Z,87.98
2018-09-08T04:21:42.722Z,87.83
2018-09-08T04:24:12.073Z,88.43
2018-09-08T04:26:41.458Z,87.58
2018-09-08T04:29:10.200Z,87.70
2018-09-08T04:31:38.947Z,88.04
2018-09-08T04:34:08.195Z,88.19
2018-09-08T04:36:38.119Z,88.46
2018-09-08T04:39:09.381Z,88.30
2018-09-08T04:41:38.467Z,88.62
2018-09-08T04:44:07.946Z,87.95
2018-09-08T04:46:37.733Z,88.13
2018-09-08T04:49:07.163Z,88.70
2018-09-08T04:51:36.014Z,87.78
2018-09-08T04:54:05.422Z,88.03
2018-09-08T04:56:35.604Z,88.60
2018-09-08T04:59:05.913Z,87.84
2018-09-08T05:01:35.355Z,87.62
2018-09-08T05:04:04.911Z,87.72
2018-09-08T05:06:33.776Z,88.03
2018-09-08T05:09:03.015Z,87.89
2018-09-08T05:11:32.916Z,87.25
2018-09-08T05:14:01.644Z,87.29
2018-09-08T05:16:30.388Z,86.99
2018-09-08T05:18:59.176Z,87.09
2018-09-08T05:21:28.655Z,87.08
2018-09-08T05:23:58.021Z,86.94
2018-09-08T05:26:27.360Z,87.04
2018-09-08T05:28:56.096Z,86.88
2018-09-08T05:31:24.869Z,86.69
2018-09-08T05:33:53.672Z,87.31
2018-09-08T05:36:23.066Z,86.65
2018-09-08T05:38:51.811Z,86.40
2018-09-08T05:41:20.635Z,87.08
2018-09-08T05:43:49.471Z,86.36
2018-09-08T05:46:18.254Z,86.11
2018-09-08T05:48:47.388Z,86.55
2018-09-08T05:51:16.226Z,86.54
2018-09-08T05:53:45.068Z,85.80
2018-09-08T05:56:13.849Z,85.59
2018-09-08T05:58:43.725Z,85.42
2018-09-08T06:01:12.477Z,85.96
2018-09-08T06:03:41.379Z,85.46
2018-09-08T06:06:10.151Z,86.10
2018-09-08T06:08:39.702Z,85.95
2018-09-08T06:11:08.891Z,85.85
2018-09-08T06:13:37.844Z,86.11
2018-09-08T06:16:06.851Z,85.87
2018-09-08T06:18:36.732Z,86.26
2018-09-08T06:21:05.722Z,85.59
2018-09-08T06:23:35.207Z,86.43
2018-09-08T06:26:05.435Z,86.44
2018-09-08T06:28:35.208Z,86.12
2018-09-08T06:31:03.953Z,86.07
2018-09-08T06:33:32.746Z,85.45
2018-09-08T06:36:02.001Z,86.19
2018-09-08T06:38:30.777Z,86.28
2018-09-08T06:40:59.566Z,85.53
2018-09-08T06:43:28.520Z,86.05
2018-09-08T06:45:57.299Z,85.66
2018-09-08T06:48:26.341Z,85.05
2018-09-08T06:50:55.194Z,86.02
2018-09-08T06:53:23.991Z,85.38
2018-09-08T06:55:52.780Z,86.07
2018-09-08T06:58:21.958Z,85.06
2018-09-08T07:00:51.364Z,85.68
2018-09-08T07:03:20.148Z,85.11
2018-09-08T07:05:49.154Z,84.51
2018-09-08T07:08:19.108Z,85.09
2018-09-08T07:10:48.705Z,85.12
2018-09-08T07:13:17.661Z,83.82
2018-09-08T07:15:46.924Z,83.01
2018-09-08T07:18:15.709Z,84.29
2018-09-08T07:20:44.529Z,85.01
2018-09-08T07:23:13.853Z,84.82
2018-09-08T07:25:43.204Z,83.97
2018-09-08T07:28:11.974Z,83.57
2018-09-08T07:30:40.727Z,83.34
2018-09-08T07:33:09.493Z,83.60
2018-09-08T07:35:38.950Z,83.10
2018-09-08T07:38:07.945Z,82.49
2018-09-08T07:40:36.891Z,81.98
2018-09-08T07:43:05.972Z,82.02
2018-09-08T07:45:35.389Z,81.27
2018-09-08T07:48:04.141Z,81.00
2018-09-08T07:50:32.963Z,80.49
2018-09-08T07:53:01.775Z,75.53
2018-09-08T07:55:30.538Z,74.25
2018-09-08T07:57:59.908Z,74.22
2018-09-08T08:00:28.747Z,73.57
2018-09-08T08:02:57.469Z,74.75
2018-09-08T08:05:26.258Z,76.02
2018-09-08T08:07:55.864Z,76.21
2018-09-08T08:10:26.879Z,76.10
2018-09-08T08:12:56.310Z,75.75
2018-09-08T08:15:25.923Z,76.86
2018-09-08T08:17:54.672Z,76.75
2018-09-08T08:20:23.459Z,76.80
2018-09-08T08:22:52.727Z,76.50
2018-09-08T08:25:22.392Z,77.20
2018-09-08T08:27:51.780Z,75.45
2018-09-08T08:30:20.556Z,75.63
2018-09-08T08:32:49.704Z,76.17
2018-09-08T08:35:20.282Z,76.32
2018-09-08T08:37:49.044Z,76.29
2018-09-08T08:40:17.835Z,76.75
2018-09-08T08:42:46.695Z,77.21
2018-09-08T08:45:15.459Z,76.81
2018-09-08T08:47:44.367Z,77.35
2018-09-08T08:50:24.184Z,77.04
2018-09-08T08:53:03.961Z,76.84
2018-09-08T08:55:32.757Z,76.23
2018-09-08T08:58:02.417Z,75.74
2018-09-08T09:00:31.208Z,74.12
2018-09-08T09:02:59.926Z,74.93
2018-09-08T09:05:28.709Z,75.44
2018-09-08T09:07:58.341Z,73.69
2018-09-08T09:10:27.802Z,74.56
2018-09-08T09:12:56.856Z,74.25
2018-09-08T09:15:26.023Z,73.58
2018-09-08T09:17:54.544Z,73.29
2018-09-08T09:20:35.480Z,72.37
2018-09-08T09:23:14.349Z,72.14
2018-09-08T09:25:43.666Z,71.32
2018-09-08T09:28:12.428Z,71.32
2018-09-08T09:30:41.193Z,71.04
2018-09-08T09:33:10.057Z,70.79
2018-09-08T09:35:39.451Z,68.75
2018-09-08T09:38:08.319Z,68.13
2018-09-08T09:40:37.341Z,68.22
2018-09-08T09:43:06.570Z,66.25
2018-09-08T09:45:36.028Z,66.75
2018-09-08T09:48:04.851Z,66.56
2018-09-08T09:50:33.628Z,65.80
2018-09-08T09:53:02.590Z,66.31
2018-09-08T09:55:31.320Z,66.77
2018-09-08T09:58:01.448Z,67.96
2018-09-08T10:00:35.795Z,67.37
2018-09-08T10:03:07.927Z,67.63
2018-09-08T10:05:37.805Z,66.55
2018-09-08T10:08:07.444Z,64.52
2018-09-08T10:10:36.995Z,64.47
2018-09-08T10:13:06.300Z,63.96
2018-09-08T10:15:35.631Z,64.09
2018-09-08T10:18:04.561Z,62.79
2018-09-08T10:20:33.380Z,63.53
2018-09-08T10:23:03.110Z,64.99
2018-09-08T10:25:32.412Z,62.97
2018-09-08T10:28:01.717Z,61.69
2018-09-08T10:30:30.656Z,59.28
2018-09-08T10:32:59.503Z,58.78
2018-09-08T10:35:28.955Z,60.51
2018-09-08T10:37:57.721Z,59.87
2018-09-08T10:40:26.540Z,61.63
2018-09-08T10:42:55.332Z,60.00
2018-09-08T10:45:24.135Z,61.03
2018-09-08T10:47:53.007Z,60.53
2018-09-08T10:50:22.156Z,59.63
2018-09-08T10:52:51.047Z,57.42
2018-09-08T10:55:20.040Z,58.34
2018-09-08T10:57:49.795Z,58.67
2018-09-08T11:00:18.608Z,58.65
2018-09-08T11:02:47.802Z,57.58
2018-09-08T11:05:17.649Z,57.88
2018-09-08T11:07:47.556Z,59.50
2018-09-08T11:10:16.858Z,59.45
2018-09-08T11:12:45.659Z,58.72
2018-09-08T11:15:14.404Z,58.17
2018-09-08T11:17:43.225Z,60.32
2018-09-08T11:20:11.963Z,59.69
2018-09-08T11:22:42.199Z,60.01
2018-09-08T11:25:11.829Z,59.14
2018-09-08T11:27:40.585Z,59.37
2018-09-08T11:30:09.521Z,58.79
2018-09-08T11:32:38.312Z,57.27
2018-09-08T11:35:07.979Z,58.44
2018-09-08T11:37:37.310Z,57.87
2018-09-08T11:40:06.397Z,57.40
2018-09-08T11:42:35.571Z,56.86
2018-09-08T11:45:04.434Z,56.54
2018-09-08T11:47:33.787Z,55.41
2018-09-08T11:50:02.545Z,55.88
2018-09-08T11:52:31.332Z,53.00
2018-09-08T11:55:00.127Z,52.51
2018-09-08T11:57:29.873Z,51.75
2018-09-08T11:59:58.598Z,47.65
2018-09-08T12:02:27.311Z,45.87
2018-09-08T12:04:56.740Z,45.46
2018-09-08T12:07:25.476Z,45.50
2018-09-08T12:09:54.827Z,44.22
2018-09-08T12:12:23.564Z,45.57
2018-09-08T12:14:52.345Z,43.93
2018-09-08T12:17:21.104Z,46.88
2018-09-08T12:19:49.963Z,46.78
2018-09-08T12:22:18.998Z,45.56
2018-09-08T12:24:48.592Z,44.51
2018-09-08T12:27:17.670Z,41.42
2018-09-08T12:29:46.475Z,43.44
2018-09-08T12:32:15.231Z,43.02
2018-09-08T12:34:44.739Z,44.20
2018-09-08T12:37:13.568Z,44.33
2018-09-08T12:39:42.321Z,44.21
2018-09-08T12:42:11.140Z,42.73
2018-09-08T12:44:39.944Z,41.95
2018-09-08T12:47:08.785Z,44.59
2018-09-08T12:49:37.924Z,42.64
2018-09-08T12:52:06.856Z,42.56
2018-09-08T12:54:35.741Z,42.91
2018-09-08T12:57:06.504Z,42.34
2018-09-08T12:59:36.052Z,43.81
2018-09-08T13:02:05.963Z,43.60
2018-09-08T13:04:35.048Z,43.91
2018-09-08T13:07:03.800Z,43.21
2018-09-08T13:09:33.490Z,43.03
2018-09-08T13:12:02.248Z,42.23
2018-09-08T13:14:31.047Z,42.14
2018-09-08T13:16:59.909Z,43.14
2018-09-08T13:19:28.825Z,42.17
2018-09-08T13:21:57.709Z,42.33
2018-09-08T13:24:27.186Z,43.04
2018-09-08T13:26:55.948Z,43.21
2018-09-08T13:29:24.724Z,42.86
2018-09-08T13:31:53.555Z,42.88
2018-09-08T13:34:22.389Z,43.18
2018-09-08T13:36:51.580Z,43.50
2018-09-08T13:39:20.334Z,44.46
2018-09-08T13:41:49.284Z,45.14
2018-09-08T13:44:18.252Z,43.53
2018-09-08T13:46:47.109Z,43.24
2018-09-08T13:49:15.988Z,44.53
2018-09-08T13:51:44.743Z,43.79
2018-09-08T13:54:13.523Z,43.66
2018-09-08T13:56:42.307Z,44.65
2018-09-08T13:59:11.832Z,44.90
2018-09-08T14:01:40.611Z,44.74
2018-09-08T14:04:09.463Z,44.57
2018-09-08T14:06:39.439Z,43.54
2018-09-08T14:09:08.806Z,44.52
2018-09-08T14:11:38.081Z,43.44
2018-09-08T14:14:07.105Z,43.72
2018-09-08T14:16:36.850Z,44.33
2018-09-08T14:19:06.084Z,43.01
2018-09-08T14:21:34.987Z,43.57
2018-09-08T14:24:04.637Z,43.10
2018-09-08T14:26:33.415Z,42.78
2018-09-08T14:29:02.177Z,44.10
2018-09-08T14:31:31.031Z,42.68
2018-09-08T14:33:59.775Z,42.27
2018-09-08T14:36:29.203Z,42.34
2018-09-08T14:38:57.928Z,42.48
2018-09-08T14:41:26.704Z,42.56
2018-09-08T14:43:55.543Z,41.25
2018-09-08T14:46:25.274Z,42.24
2018-09-08T14:48:54.139Z,42.72
2018-09-08T14:51:22.968Z,41.74
2018-09-08T14:53:51.722Z,42.17
2018-09-08T14:56:21.685Z,41.83
2018-09-08T14:58:51.033Z,41.09
2018-09-08T15:01:20.043Z,42.79
2018-09-08T15:03:48.866Z,42.78
2018-09-08T15:06:17.894Z,44.01
2018-09-08T15:08:47.371Z,42.73
2018-09-08T15:11:16.946Z,42.79
2018-09-08T15:13:45.746Z,43.29
2018-09-08T15:16:14.523Z,43.24
2018-09-08T15:18:44.012Z,43.90
2018-09-08T15:21:12.803Z,44.30
2018-09-08T15:23:42.160Z,44.69
2018-09-08T15:26:10.957Z,45.63
2018-09-08T15:28:39.692Z,46.56
2018-09-08T15:31:08.513Z,45.65
2018-09-08T15:33:37.498Z,44.95
2018-09-08T15:36:08.260Z,45.12
2018-09-08T15:38:37.131Z,46.16
2018-09-08T15:41:06.107Z,45.49
2018-09-08T15:43:34.983Z,45.79
2018-09-08T15:46:04.711Z,44.52
2018-09-08T15:48:33.470Z,44.18
2018-09-08T15:51:02.207Z,44.29
2018-09-08T15:53:30.988Z,44.30
2018-09-08T15:55:59.937Z,44.74
2018-09-08T15:58:29.484Z,44.85
2018-09-08T16:00:58.264Z,45.56
2018-09-08T16:03:27.001Z,46.58
2018-09-08T16:05:55.759Z,46.64
2018-09-08T16:08:25.201Z,45.33
2018-09-08T16:10:54.990Z,45.61
2018-09-08T16:13:23.715Z,45.63
2018-09-08T16:15:52.437Z,44.53
2018-09-08T16:18:21.947Z,43.63
2018-09-08T16:20:50.711Z,43.74
2018-09-08T16:23:20.804Z,43.03
2018-09-08T16:25:50.135Z,42.56
2018-09-08T16:28:18.966Z,41.70
2018-09-08T16:30:47.762Z,40.42
2018-09-08T16:33:16.553Z,40.67
2018-09-08T16:35:46.213Z,42.10
2018-09-08T16:38:15.009Z,41.61
2018-09-08T16:40:43.734Z,42.31
2018-09-08T16:43:12.818Z,41.97
2018-09-08T16:45:41.595Z,42.10
2018-09-08T16:48:10.473Z,41.74
2018-09-08T16:50:39.228Z,42.50
2018-09-08T16:53:08.706Z,41.92
2018-09-08T16:55:38.247Z,42.52
2018-09-08T16:58:08.453Z,43.47
2018-09-08T17:00:37.463Z,44.13
2018-09-08T17:03:06.071Z,45.42
2018-09-08T17:05:34.980Z,46.59
2018-09-08T17:08:04.254Z,47.42
2018-09-08T17:10:33.737Z,47.74
2018-09-08T17:13:02.499Z,49.02
2018-09-08T17:15:31.233Z,49.95
2018-09-08T17:18:00.438Z,50.39
2018-09-08T17:20:29.161Z,51.22
2018-09-08T17:22:58.788Z,51.74
2018-09-08T17:25:27.924Z,52.48
2018-09-08T17:27:56.671Z,52.95
2018-09-08T17:30:25.487Z,53.31
2018-09-08T17:32:54.833Z,54.01
2018-09-08T17:35:24.850Z,54.94
2018-09-08T17:37:53.596Z,54.59
2018-09-08T17:40:22.358Z,54.92
2018-09-08T17:42:51.165Z,55.94
2018-09-08T17:45:20.320Z,55.28
2018-09-08T17:47:49.514Z,56.79
2018-09-08T17:50:18.400Z,57.29
2018-09-08T17:52:48.109Z,57.40
2018-09-08T17:55:17.140Z,58.59
2018-09-08T17:57:46.430Z,59.05
2018-09-08T18:00:15.273Z,59.03
2018-09-08T18:02:44.130Z,59.69
2018-09-08T18:05:13.035Z,59.26
2018-09-08T18:07:41.735Z,60.14
2018-09-08T18:10:11.320Z,60.25
2018-09-08T18:12:40.074Z,59.16
2018-09-08T18:15:09.547Z,59.99
2018-09-08T18:17:39.192Z,59.94
2018-09-08T18:20:08.503Z,60.06
2018-09-08T18:22:38.238Z,60.88
2018-09-08T18:25:08.446Z,60.69
2018-09-08T18:27:37.759Z,61.41
2018-09-08T18:30:07.614Z,62.30
2018-09-08T18:32:37.797Z,62.54
2018-09-08T18:35:09.017Z,62.43
2018-09-08T18:37:39.172Z,62.40
2018-09-08T18:40:09.035Z,62.72
2018-09-08T18:42:38.003Z,63.05
2018-09-08T18:45:07.661Z,63.29
2018-09-08T18:47:36.615Z,63.82
2018-09-08T18:50:07.179Z,64.53
2018-09-08T18:52:36.181Z,64.00
2018-09-08T18:55:05.681Z,63.72
2018-09-08T18:57:36.299Z,64.81
2018-09-08T19:00:05.858Z,65.23
2018-09-08T19:02:34.675Z,65.40
2018-09-08T19:05:05.124Z,64.59
2018-09-08T19:07:33.976Z,65.64
2018-09-08T19:10:05.631Z,65.10
2018-09-08T19:12:36.523Z,64.68
2018-09-08T19:15:10.574Z,65.42
2018-09-08T19:17:40.619Z,64.78
2018-09-08T19:20:14.714Z,65.46
2018-09-08T19:22:43.976Z,65.80
2018-09-08T19:25:13.385Z,65.11
2018-09-08T19:27:42.132Z,65.48
2018-09-08T19:30:11.738Z,65.47
2018-09-08T19:32:40.544Z,66.19
2018-09-08T19:35:15.148Z,66.33
2018-09-08T19:37:43.943Z,66.87
2018-09-08T19:40:17.835Z,66.04
2018-09-08T19:42:46.643Z,65.94
2018-09-08T19:45:15.853Z,66.63
2018-09-08T19:47:50.482Z,66.43
2018-09-08T19:50:19.439Z,67.27
2018-09-08T19:52:53.461Z,67.17
2018-09-08T19:55:22.323Z,67.87
2018-09-08T19:57:57.939Z,67.60
2018-09-08T20:00:26.708Z,67.96
2018-09-08T20:02:55.475Z,68.19
2018-09-08T20:05:24.362Z,68.58
2018-09-08T20:07:54.098Z,68.57
2018-09-08T20:10:23.559Z,68.50
2018-09-08T20:12:52.358Z,69.08
2018-09-08T20:15:21.187Z,69.05
2018-09-08T20:17:51.252Z,68.17
2018-09-08T20:20:20.066Z,68.54
2018-09-08T20:22:50.866Z,68.78
2018-09-08T20:25:21.031Z,69.37
2018-09-08T20:27:49.833Z,68.14
2018-09-08T20:30:18.674Z,68.78
2018-09-08T20:32:48.048Z,69.10
2018-09-08T20:35:17.496Z,69.34
2018-09-08T20:37:47.317Z,69.18
2018-09-08T20:40:16.106Z,69.04
2018-09-08T20:42:44.835Z,69.12
2018-09-08T20:45:14.964Z,69.83
2018-09-08T20:47:43.806Z,70.09
2018-09-08T20:50:12.549Z,69.71
2018-09-08T20:52:41.338Z,70.13
2018-09-08T20:55:10.119Z,70.18
2018-09-08T20:57:39.666Z,70.06
2018-09-08T21:00:08.604Z,70.57
2018-09-08T21:02:37.597Z,70.36
2018-09-08T21:05:06.882Z,69.58
2018-09-08T21:07:36.142Z,70.20
2018-09-08T21:10:05.746Z,69.77
2018-09-08T21:12:34.598Z,70.09
2018-09-08T21:15:03.759Z,69.73
2018-09-08T21:17:33.253Z,70.21
2018-09-08T21:20:02.067Z,69.97
2018-09-08T21:22:31.696Z,70.36
2018-09-08T21:25:00.980Z,70.84
2018-09-08T21:27:29.656Z,71.36
2018-09-08T21:29:58.474Z,71.21
2018-09-08T21:32:27.255Z,71.66
2018-09-08T21:34:57.564Z,70.83
2018-09-08T21:37:26.420Z,71.95
2018-09-08T21:39:55.153Z,71.50
2018-09-08T21:42:24.699Z,71.29
2018-09-08T21:44:53.458Z,71.87
2018-09-08T21:47:22.168Z,72.08
2018-09-08T21:49:50.942Z,72.30
2018-09-08T21:52:19.944Z,72.35
2018-09-08T21:54:49.215Z,72.21
2018-09-08T21:57:18.885Z,71.99
2018-09-08T21:59:47.615Z,72.46
2018-09-08T22:02:16.466Z,71.85
2018-09-08T22:04:45.395Z,71.75
2018-09-08T22:07:14.168Z,72.43
2018-09-08T22:09:43.620Z,72.37
2018-09-08T22:12:12.653Z,71.60
2018-09-08T22:14:41.916Z,72.21
2018-09-08T22:17:10.807Z,72.48
2018-09-08T22:19:40.190Z,72.50
2018-09-08T22:22:09.199Z,71.80
2018-09-08T22:24:38.681Z,72.53
2018-09-08T22:27:09.020Z,72.40
2018-09-08T22:29:38.414Z,72.25
2018-09-08T22:32:07.570Z,72.87
2018-09-08T22:34:37.942Z,71.98
2018-09-08T22:37:07.437Z,72.52
2018-09-08T22:39:36.912Z,72.44
2018-09-08T22:42:05.915Z,72.19
2018-09-08T22:44:34.694Z,72.40
2018-09-08T22:47:03.471Z,72.31
2018-09-08T22:49:32.203Z,72.99
2018-09-08T22:52:01.087Z,72.42
2018-09-08T22:54:29.912Z,72.65
2018-09-08T22:56:58.739Z,72.78
2018-09-08T22:59:28.271Z,72.96
2018-09-08T23:01:57.068Z,73.28
2018-09-08T23:04:25.803Z,73.41
2018-09-08T23:06:54.567Z,73.58
2018-09-08T23:09:24.394Z,73.63
2018-09-08T23:11:53.771Z,73.69
2018-09-08T23:14:22.619Z,73.99
2018-09-08T23:16:51.359Z,74.47
2018-09-08T23:19:20.537Z,74.83
2018-09-08T23:21:49.459Z,73.78
2018-09-08T23:24:19.047Z,73.94
2018-09-08T23:26:48.298Z,74.38
2018-09-08T23:29:17.909Z,74.60
2018-09-08T23:31:46.807Z,74.34
2018-09-08T23:34:15.594Z,74.94
2018-09-08T23:36:45.326Z,74.77
2018-09-08T23:39:14.292Z,74.92
2018-09-08T23:41:43.028Z,74.30
2018-09-08T23:44:11.911Z,75.15
2018-09-08T23:46:40.686Z,74.77
2018-09-08T23:49:09.546Z,74.87
2018-09-08T23:51:38.386Z,75.64
2018-09-08T23:54:22.495Z,75.54
2018-09-08T23:56:51.302Z,75.39
2018-09-08T23:59:21.321Z,75.69
